Time;durP1;ratioP1;P1;durP2;ratioP2;P2;SDS_P1;SDS_P2;PMS_P1;PMS_P2;Temp;Humidity;BMP_temperature;BMP_pressure;BME280_temperature;BME280_humidity;BME280_pressure;Samples;Min_cycle;Max_cycle;Signal;HPM_P1;HPM_P2
2022/08/13 00:01:37;;;;;;;;;14.33;12.67;;;;;26.37;39.26;101006.19;5037388;28;45345;-73
2022/08/13 00:04:07;;;;;;;;;18.00;16.67;;;;;26.32;39.51;101000.13;5033120;28;47536;-73
2022/08/13 00:09:04;;;;;;;;;15.00;15.00;;;;;26.29;39.41;101001.16;5035479;28;45240;-74
2022/08/13 00:14:14;;;;;;;;;14.00;13.67;;;;;26.24;39.69;101002.34;5036637;28;45739;-74
2022/08/13 00:16:40;;;;;;;;;16.00;14.00;;;;;26.18;39.99;100999.94;5030002;28;45316;-73
2022/08/13 00:19:05;;;;;;;;;14.00;14.00;;;;;26.17;39.79;101001.78;5036536;28;45449;-74
2022/08/13 00:21:30;;;;;;;;;17.00;15.00;;;;;26.16;39.33;101007.28;5036072;28;49214;-73
2022/08/13 00:23:57;;;;;;;;;16.33;15.33;;;;;26.12;39.40;101004.72;5026905;28;45722;-74
2022/08/13 00:26:25;;;;;;;;;16.00;13.67;;;;;26.10;40.01;101003.06;5032154;28;45416;-73
2022/08/13 00:28:53;;;;;;;;;14.33;14.33;;;;;26.07;39.37;100997.78;5035703;28;46644;-73
2022/08/13 00:31:18;;;;;;;;;16.67;14.67;;;;;26.04;39.77;101001.50;5036464;28;45642;-74
2022/08/13 00:33:43;;;;;;;;;18.00;15.33;;;;;25.99;39.95;101000.88;5038609;28;67647;-73
2022/08/13 00:36:09;;;;;;;;;16.67;16.00;;;;;25.98;39.59;101003.66;5036000;28;45534;-74
2022/08/13 00:38:35;;;;;;;;;20.33;18.00;;;;;25.96;40.15;101000.16;5028636;28;62695;-74
2022/08/13 00:41:00;;;;;;;;;12.33;12.33;;;;;25.92;40.21;101004.84;5034325;28;45318;-73
2022/08/13 00:43:27;;;;;;;;;15.00;15.00;;;;;25.88;39.79;100997.84;5034151;28;46196;-74
2022/08/13 00:45:54;;;;;;;;;15.33;13.33;;;;;25.86;40.10;101003.31;5012864;28;45349;-73
2022/08/13 00:51:06;;;;;;;;;15.00;14.00;;;;;25.80;39.71;101010.88;5036082;28;45500;-74
2022/08/13 00:53:32;;;;;;;;;14.00;13.00;;;;;25.77;40.38;101005.59;5035767;28;46720;-75
2022/08/13 00:55:59;;;;;;;;;13.67;13.67;;;;;25.74;40.21;101012.06;5011121;28;45272;-74
2022/08/13 00:58:27;;;;;;;;;13.67;13.67;;;;;25.70;40.36;101006.84;5035105;28;45392;-73
2022/08/13 01:00:56;;;;;;;;;15.67;12.00;;;;;25.69;40.30;101005.97;5032757;28;45361;-73
2022/08/13 01:03:23;;;;;;;;;14.33;13.33;;;;;25.67;40.24;101001.56;5032319;28;46561;-73
2022/08/13 01:05:48;;;;;;;;;13.33;12.67;;;;;25.64;39.95;101007.16;5034131;28;45491;-74
2022/08/13 01:08:16;;;;;;;;;9.33;9.33;;;;;25.59;39.64;101002.84;5012594;28;45928;-74
2022/08/13 01:10:43;;;;;;;;;13.33;11.67;;;;;25.58;39.61;101011.91;5035640;28;45579;-73
2022/08/13 01:13:11;;;;;;;;;14.00;12.00;;;;;25.55;40.18;101012.03;5034465;28;46115;-74
2022/08/13 01:15:38;;;;;;;;;10.33;10.33;;;;;25.52;39.74;101014.91;5024145;28;45352;-74
2022/08/13 01:18:04;;;;;;;;;10.33;10.33;;;;;25.50;39.66;101016.78;5038826;28;45483;-73
2022/08/13 01:20:31;;;;;;;;;9.67;9.67;;;;;25.47;40.13;101008.84;5024478;28;45557;-73
2022/08/13 01:22:57;;;;;;;;;10.67;10.33;;;;;25.45;39.56;101016.13;5039883;28;46336;-73
2022/08/13 01:25:25;;;;;;;;;11.00;11.00;;;;;25.43;39.58;101009.06;5041637;28;45975;-74
2022/08/13 01:27:52;;;;;;;;;12.67;12.33;;;;;25.41;39.66;101009.13;5040587;28;45297;-73
2022/08/13 01:30:20;;;;;;;;;12.67;10.67;;;;;25.38;39.61;101013.81;5042466;28;45304;-73
2022/08/13 01:32:46;;;;;;;;;10.33;10.33;;;;;25.37;39.66;101010.22;5041698;28;46352;-73
2022/08/13 01:35:11;;;;;;;;;10.00;10.00;;;;;25.32;39.78;101004.16;5041317;28;45887;-73
2022/08/13 01:37:37;;;;;;;;;10.67;9.33;;;;;25.27;39.99;101004.38;5038482;28;49247;-74
2022/08/13 01:40:05;;;;;;;;;11.00;11.00;;;;;25.26;40.39;101010.75;5038773;28;45333;-73
2022/08/13 01:42:36;;;;;;;;;11.00;10.33;;;;;25.24;40.31;101007.22;5041622;28;46615;-73
2022/08/13 01:45:03;;;;;;;;;10.67;9.33;;;;;25.20;40.27;101012.88;5023847;28;45475;-73
2022/08/13 01:50:30;;;;;;;;;9.00;9.00;;;;;25.19;39.83;101005.69;5036631;28;45982;-73
2022/08/13 01:53:05;;;;;;;;;9.00;7.00;;;;;25.17;40.06;101015.69;5042077;28;47618;-74
2022/08/13 01:55:43;;;;;;;;;10.00;9.00;;;;;25.13;39.52;101011.38;5035882;28;45602;-75
2022/08/13 01:58:12;;;;;;;;;9.33;8.67;;;;;25.12;39.27;101007.81;5041001;28;45371;-75
2022/08/13 02:00:39;;;;;;;;;10.00;10.00;;;;;25.10;39.95;101007.00;5036255;28;45530;-75
2022/08/13 02:03:09;;;;;;;;;10.67;9.00;;;;;25.09;39.46;101010.66;5023807;28;47659;-75
2022/08/13 02:05:36;;;;;;;;;8.33;8.33;;;;;25.08;39.68;101008.88;5038717;28;45440;-75
2022/08/13 02:08:02;;;;;;;;;8.00;8.00;;;;;25.06;39.19;101014.38;5041904;28;45346;-73
2022/08/13 02:10:28;;;;;;;;;9.00;9.00;;;;;25.05;39.55;101018.00;5041211;28;45503;-74
2022/08/13 02:12:53;;;;;;;;;11.67;10.00;;;;;25.03;39.94;101011.75;5041765;28;47362;-74
2022/08/13 02:15:19;;;;;;;;;8.00;8.00;;;;;25.02;39.60;101015.41;5033260;28;45471;-74
2022/08/13 02:17:45;;;;;;;;;9.00;9.00;;;;;25.01;39.37;101015.50;5039881;28;64183;-75
2022/08/13 02:20:17;;;;;;;;;6.00;6.00;;;;;24.98;39.73;101012.91;5037337;28;45569;-74
2022/08/13 02:22:46;;;;;;;;;10.00;8.33;;;;;24.99;39.17;101017.41;5041744;28;47514;-75
2022/08/13 02:25:14;;;;;;;;;8.00;8.00;;;;;24.96;39.19;101023.81;5041156;28;45546;-74
2022/08/13 02:27:40;;;;;;;;;12.33;10.67;;;;;24.92;39.80;101010.50;5035968;28;45245;-76
2022/08/13 02:30:10;;;;;;;;;11.00;8.33;;;;;24.91;39.25;101017.72;5039230;28;45522;-74
2022/08/13 02:32:42;;;;;;;;;11.00;10.00;;;;;24.88;39.08;101017.91;5038980;28;47444;-75
2022/08/13 02:35:11;;;;;;;;;10.33;8.33;;;;;24.85;39.32;101023.41;5038738;28;45495;-74
2022/08/13 02:37:37;;;;;;;;;9.33;9.00;;;;;24.82;39.22;101026.25;5015170;28;45453;-74
2022/08/13 02:41:37;;;;;;;;;10.00;10.00;;;;;24.78;39.24;101017.44;5037692;28;45218;-74
2022/08/13 02:42:53;;;;;;;;;12.00;12.00;;;;;24.73;39.72;101022.16;5037342;28;46174;-74
2022/08/13 02:45:20;;;;;;;;;10.33;9.00;;;;;24.70;39.45;101016.88;5037664;28;45400;-74
2022/08/13 02:47:46;;;;;;;;;9.00;9.00;;;;;24.66;39.43;101018.00;5036988;28;45538;-74
2022/08/13 02:50:11;;;;;;;;;10.33;9.00;;;;;24.65;39.90;101015.31;5030630;28;45241;-73
2022/08/13 02:52:39;;;;;;;;;10.33;10.00;;;;;24.61;39.65;101016.41;5031812;28;46761;-73
2022/08/13 02:55:05;;;;;;;;;9.33;9.00;;;;;24.55;39.95;101013.06;5037897;28;45451;-74
2022/08/13 02:57:31;;;;;;;;;11.33;9.33;;;;;24.52;39.75;101015.00;5037576;28;45357;-73
2022/08/13 02:59:56;;;;;;;;;11.00;11.00;;;;;24.47;39.78;101015.19;5029684;28;45186;-74
2022/08/13 03:02:22;;;;;;;;;11.67;10.33;;;;;24.44;40.20;101022.56;5035570;28;63841;-74
2022/08/13 03:04:47;;;;;;;;;13.67;9.67;;;;;24.40;40.21;101021.81;5015121;28;45238;-73
2022/08/13 03:07:13;;;;;;;;;12.33;12.00;;;;;24.37;40.19;101027.34;5036753;28;45509;-75
2022/08/13 03:09:39;;;;;;;;;9.67;9.00;;;;;24.36;40.65;101022.03;5037544;28;45506;-74
2022/08/13 03:12:06;;;;;;;;;10.67;10.00;;;;;24.33;40.19;101022.97;5016445;28;71745;-74
2022/08/13 03:14:32;;;;;;;;;10.33;8.00;;;;;24.29;40.36;101024.97;5037349;28;45417;-74
2022/08/13 03:16:57;;;;;;;;;13.33;11.00;;;;;24.26;40.54;101018.81;5034823;28;45392;-74
2022/08/13 03:19:24;;;;;;;;;13.33;10.67;;;;;24.21;40.95;101007.31;5034558;28;58738;-74
2022/08/13 03:21:50;;;;;;;;;11.00;11.00;;;;;24.20;40.44;101010.97;5037565;28;47598;-74
2022/08/13 03:24:17;;;;;;;;;9.67;9.67;;;;;24.16;40.61;101012.03;5036530;28;66585;-75
2022/08/13 03:26:44;;;;;;;;;10.33;10.33;;;;;24.13;40.48;101007.66;5036582;28;45487;-76
2022/08/13 03:29:09;;;;;;;;;12.67;12.67;;;;;24.12;40.93;101000.50;5032877;28;45479;-74
2022/08/13 03:31:35;;;;;;;;;12.00;10.33;;;;;24.10;40.80;101006.91;5035823;28;46309;-74
2022/08/13 03:34:03;;;;;;;;;10.67;10.67;;;;;24.07;40.68;101010.59;5037399;28;45412;-74
2022/08/13 03:36:30;;;;;;;;;8.67;8.67;;;;;24.07;40.68;101012.41;5028137;28;45322;-75
2022/08/13 03:38:56;;;;;;;;;9.33;9.00;;;;;24.04;41.02;101008.91;5036903;28;45242;-74
2022/08/13 03:41:21;;;;;;;;;9.00;8.33;;;;;24.04;40.54;101008.91;5036192;28;47307;-73
2022/08/13 03:43:47;;;;;;;;;9.00;9.00;;;;;24.03;40.94;101014.38;5031461;28;45359;-74
2022/08/13 03:46:23;;;;;;;;;9.00;9.00;;;;;24.00;40.96;101015.38;5037495;28;45402;-75
2022/08/13 03:48:49;;;;;;;;;11.00;8.00;;;;;24.01;40.61;101010.84;5036601;28;45321;-74
2022/08/13 03:51:17;;;;;;;;;7.33;7.33;;;;;23.99;40.78;101012.75;5034796;28;46757;-74
2022/08/13 03:53:43;;;;;;;;;7.00;7.00;;;;;23.97;40.54;101010.13;5036312;28;45443;-75
2022/08/13 03:56:10;;;;;;;;;9.00;8.00;;;;;23.96;40.60;101013.75;5032522;28;45507;-74
2022/08/13 03:58:37;;;;;;;;;5.00;5.00;;;;;23.94;40.50;101015.63;5034830;28;45502;-74
2022/08/13 04:01:04;;;;;;;;;9.00;8.00;;;;;23.92;40.87;101014.84;5036899;28;47387;-74
2022/08/13 04:03:36;;;;;;;;;8.33;8.33;;;;;23.88;40.52;101015.03;5032780;28;45785;-74
2022/08/13 04:06:08;;;;;;;;;11.33;9.00;;;;;23.87;40.68;101010.56;5033825;28;45479;-74
2022/08/13 04:08:36;;;;;;;;;8.00;6.00;;;;;23.86;40.73;101017.75;5031166;28;45501;-74
2022/08/13 04:11:08;;;;;;;;;9.00;9.00;;;;;23.85;40.85;101009.75;5036096;28;47618;-73
2022/08/13 04:13:36;;;;;;;;;7.00;7.00;;;;;23.82;40.89;101015.28;5036688;28;45496;-74
2022/08/13 04:16:22;;;;;;;;;9.00;9.00;;;;;23.82;40.65;101016.16;5030092;28;45455;-74
2022/08/13 04:18:50;;;;;;;;;10.33;8.00;;;;;23.81;40.66;101016.19;5033665;28;45534;-75
2022/08/13 04:21:17;;;;;;;;;8.67;8.00;;;;;23.79;40.61;101013.56;5026552;28;46639;-74
2022/08/13 04:23:43;;;;;;;;;8.00;7.00;;;;;23.77;40.55;101010.06;5036479;28;45517;-74
2022/08/13 04:26:11;;;;;;;;;8.67;8.00;;;;;23.73;40.66;101011.13;5036136;28;45372;-74
2022/08/13 04:28:41;;;;;;;;;6.33;6.33;;;;;23.73;40.58;101011.13;5034539;28;45517;-75
2022/08/13 04:31:06;;;;;;;;;10.33;8.67;;;;;23.71;40.90;101013.91;5036262;28;47566;-73
2022/08/13 04:33:31;;;;;;;;;9.00;8.00;;;;;23.69;40.64;101010.38;5035366;28;68128;-74
2022/08/13 04:35:57;;;;;;;;;8.33;6.67;;;;;23.70;40.93;101027.41;5036837;28;45352;-74
2022/08/13 04:38:22;;;;;;;;;10.67;7.00;;;;;23.68;40.76;101014.00;5035453;28;56326;-75
2022/08/13 04:40:48;;;;;;;;;9.00;8.00;;;;;23.65;40.84;101010.53;5036377;28;46414;-74
2022/08/13 04:43:14;;;;;;;;;10.00;8.00;;;;;23.65;40.94;101013.25;5033993;28;45491;-74
2022/08/13 04:45:42;;;;;;;;;9.00;6.00;;;;;23.65;40.90;101016.84;5035993;28;45732;-74
2022/08/13 04:48:13;;;;;;;;;7.67;7.67;;;;;23.63;41.35;101010.63;5036275;28;45368;-74
2022/08/13 04:50:40;;;;;;;;;7.00;7.00;;;;;23.59;41.11;101002.69;5035815;28;47385;-74
2022/08/13 04:53:09;;;;;;;;;9.67;6.00;;;;;23.61;41.23;101017.88;5035514;28;45465;-74
2022/08/13 04:55:36;;;;;;;;;5.33;5.00;;;;;23.60;41.05;101013.41;5035346;28;45401;-74
2022/08/13 04:58:02;;;;;;;;;5.00;4.33;;;;;23.59;41.41;101006.25;5032392;28;45545;-74
2022/08/13 05:00:32;;;;;;;;;6.67;6.00;;;;;23.60;41.11;101012.53;5023311;28;46996;-74
2022/08/13 05:03:10;;;;;;;;;7.00;7.00;;;;;23.60;41.51;101009.84;5035002;28;46131;-74
2022/08/13 05:05:36;;;;;;;;;9.00;7.00;;;;;23.60;41.25;101008.03;5033216;28;45782;-75
2022/08/13 05:08:03;;;;;;;;;11.00;9.33;;;;;23.62;41.29;101013.34;5021806;28;45304;-75
2022/08/13 05:10:31;;;;;;;;;7.00;7.00;;;;;23.61;41.38;101001.69;5036334;28;46513;-76
2022/08/13 05:13:02;;;;;;;;;7.67;7.67;;;;;23.63;41.10;101004.34;5046115;28;45556;-76
2022/08/13 05:15:28;;;;;;;;;8.00;6.33;;;;;23.63;41.31;101015.13;5046140;28;45637;-77
2022/08/13 05:17:54;;;;;;;;;7.00;7.00;;;;;23.62;41.61;101018.75;5045630;28;45545;-76
2022/08/13 05:20:19;;;;;;;;;7.67;7.00;;;;;23.64;41.38;101023.16;5032942;28;45595;-77
2022/08/13 05:22:45;;;;;;;;;8.67;8.00;;;;;23.65;41.42;101029.41;5031904;28;45496;-76
2022/08/13 05:25:10;;;;;;;;;10.00;8.00;;;;;23.66;41.67;101026.69;5038031;28;62255;-77
2022/08/13 05:27:36;;;;;;;;;7.33;7.33;;;;;23.68;41.53;101023.91;5133819;22;45947;-77
2022/08/13 05:30:03;;;;;;;;;7.00;7.00;;;;;23.71;41.60;101023.81;5022608;28;46015;-75
2022/08/13 05:32:28;;;;;;;;;8.00;8.00;;;;;23.71;41.65;101019.28;5009953;28;45599;-77
2022/08/13 05:34:54;;;;;;;;;7.67;7.67;;;;;23.75;41.88;101031.69;5022604;28;45529;-75
2022/08/13 05:37:19;;;;;;;;;6.00;6.00;;;;;23.77;41.64;101020.84;5013374;28;60566;-76
2022/08/13 05:39:48;;;;;;;;;8.33;6.33;;;;;23.78;42.13;101022.59;5014444;28;66891;-74
2022/08/13 05:42:14;;;;;;;;;7.00;7.00;;;;;23.80;41.53;101012.63;5018109;28;45446;-74
2022/08/13 05:44:40;;;;;;;;;6.00;6.00;;;;;23.82;41.90;101018.84;5024840;28;45510;-75
2022/08/13 05:47:05;;;;;;;;;7.00;6.33;;;;;23.85;41.73;101016.00;5024319;28;45547;-74
2022/08/13 05:49:31;;;;;;;;;9.67;8.33;;;;;23.89;41.90;101025.75;5024612;28;46567;-76
2022/08/13 05:51:57;;;;;;;;;7.00;7.00;;;;;23.91;41.98;101023.84;5027616;28;45540;-73
2022/08/13 05:54:23;;;;;;;;;7.33;7.00;;;;;23.96;41.58;101027.22;5017057;28;45530;-73
2022/08/13 05:56:49;;;;;;;;;6.00;6.00;;;;;24.01;41.79;101025.22;5013420;28;45538;-74
2022/08/13 06:04:48;;;;;;;;;7.67;6.33;;;;;24.14;42.03;101028.31;5012704;28;45459;-74
2022/08/13 06:07:17;;;;;;;;;7.00;7.00;;;;;24.17;41.72;101033.56;5017757;28;45397;-72
2022/08/13 06:09:43;;;;;;;;;5.67;5.67;;;;;24.20;41.66;101028.03;5016569;28;47692;-79
2022/08/13 06:12:08;;;;;;;;;6.00;6.00;;;;;24.23;41.66;101025.19;5006070;28;45498;-74
2022/08/13 06:14:34;;;;;;;;;7.00;6.00;;;;;24.27;41.52;101028.66;5017663;28;45353;-78
2022/08/13 06:17:02;;;;;;;;;7.33;6.00;;;;;24.33;41.66;101035.59;5008667;28;45735;-77
2022/08/13 06:19:29;;;;;;;;;5.33;5.33;;;;;24.38;41.75;101025.53;5018545;28;47356;-76
2022/08/13 06:22:02;;;;;;;;;7.00;5.00;;;;;24.42;41.03;101030.72;5015667;28;45472;-74
2022/08/13 06:24:32;;;;;;;;;7.00;6.00;;;;;24.48;41.64;101033.16;5013934;28;46310;-76
2022/08/13 06:27:00;;;;;;;;;6.00;6.00;;;;;24.52;41.24;101029.38;5017741;28;45420;-77
2022/08/13 06:29:29;;;;;;;;;6.00;6.00;;;;;24.56;40.73;101024.72;5015819;28;46863;-77
2022/08/13 06:31:55;;;;;;;;;7.00;7.00;;;;;24.62;40.90;101032.56;5016510;28;45488;-77
2022/08/13 06:34:22;;;;;;;;;5.00;5.00;;;;;24.65;40.78;101024.31;5014958;28;45948;-73
2022/08/13 06:36:48;;;;;;;;;5.00;5.00;;;;;24.70;40.74;101035.78;5012369;28;45378;-71
2022/08/13 06:39:13;;;;;;;;;7.00;6.00;;;;;24.72;40.44;101028.50;5015375;28;46504;-75
2022/08/13 06:41:39;;;;;;;;;6.00;6.00;;;;;24.74;40.72;101036.53;5013216;28;45547;-74
2022/08/13 06:44:05;;;;;;;;;11.67;8.00;;;;;24.75;40.92;101030.19;5015950;28;62315;-77
2022/08/13 06:46:31;;;;;;;;;7.00;7.00;;;;;24.79;41.03;101026.41;5012868;28;45511;-78
2022/08/13 06:49:01;;;;;;;;;8.00;5.33;;;;;24.82;41.02;101032.56;5013249;28;45571;-73
2022/08/13 06:51:26;;;;;;;;;6.00;6.00;;;;;24.84;41.26;101029.78;5017733;28;45178;-76
2022/08/13 06:53:54;;;;;;;;;5.67;5.67;;;;;24.88;40.75;101034.09;5020496;28;45550;-74
2022/08/13 06:56:22;;;;;;;;;7.00;5.00;;;;;24.94;41.11;101030.25;5017154;28;45336;-74
2022/08/13 06:58:49;;;;;;;;;8.00;7.33;;;;;24.95;40.74;101027.47;5017254;28;46722;-76
2022/08/13 07:01:23;;;;;;;;;5.00;5.00;;;;;25.00;41.40;101028.13;5017245;28;45521;-72
2022/08/13 07:03:50;;;;;;;;;6.00;6.00;;;;;25.06;40.98;101032.41;5017698;28;45322;-73
2022/08/13 07:06:17;;;;;;;;;8.33;6.00;;;;;25.08;41.01;101035.91;5017557;28;45515;-78
2022/08/13 07:34:09;;;;;;;;;10.00;8.67;;;;;24.85;42.76;101046.84;5109373;27;45519;-74
2022/08/13 07:36:37;;;;;;;;;7.33;6.67;;;;;24.91;42.52;101033.94;5090112;27;46205;-70
2022/08/13 07:39:11;;;;;;;;;7.67;6.67;;;;;25.01;42.55;101040.69;5091378;27;45587;-72
2022/08/13 07:41:40;;;;;;;;;9.00;7.00;;;;;25.17;42.64;101050.81;5092895;27;45751;-72
2022/08/13 07:44:05;;;;;;;;;7.00;6.67;;;;;25.20;42.44;101039.88;5092645;27;46036;-72
2022/08/13 07:46:42;;;;;;;;;6.33;6.33;;;;;25.29;41.97;101040.31;5088691;27;45523;-72
2022/08/13 07:49:10;;;;;;;;;6.00;6.00;;;;;25.38;42.05;101036.31;5091951;27;45682;-73
2022/08/13 07:51:37;;;;;;;;;6.67;6.67;;;;;25.42;41.91;101032.50;5105100;27;46826;-71
2022/08/13 07:54:05;;;;;;;;;6.67;6.33;;;;;25.57;41.55;101037.19;5108645;27;46600;-71
2022/08/13 07:56:32;;;;;;;;;7.67;7.00;;;;;25.59;40.86;101029.88;5103090;27;45758;-73
2022/08/13 07:59:04;;;;;;;;;5.33;5.33;;;;;25.67;40.93;101032.19;5092293;27;45431;-71
2022/08/13 08:01:33;;;;;;;;;7.33;5.00;;;;;25.77;40.39;101038.94;5103493;27;45687;-72
2022/08/13 08:04:02;;;;;;;;;6.00;6.00;;;;;25.84;40.44;101048.53;5109226;27;47387;-73
2022/08/13 08:06:29;;;;;;;;;7.00;5.67;;;;;25.90;40.34;101039.25;5106776;27;45581;-72
2022/08/13 08:08:54;;;;;;;;;8.00;6.33;;;;;25.96;40.22;101049.75;5093815;27;45478;-72
2022/08/13 08:14:10;;;;;;;;;6.33;6.33;;;;;26.07;39.79;101047.38;5111596;27;45403;-72
2022/08/13 08:16:36;;;;;;;;;7.33;5.00;;;;;26.13;39.84;101048.91;5091213;27;45509;-72
2022/08/13 08:19:05;;;;;;;;;6.00;6.00;;;;;26.18;39.91;101040.56;5093033;27;45281;-73
2022/08/13 08:21:32;;;;;;;;;7.67;6.00;;;;;26.23;39.43;101046.63;5095863;27;45584;-72
2022/08/13 08:24:00;;;;;;;;;7.67;5.00;;;;;26.27;39.76;101050.94;5119012;27;45879;-72
2022/08/13 08:26:27;;;;;;;;;4.67;4.67;;;;;26.33;39.79;101046.06;5092605;27;45285;-73
2022/08/13 08:28:54;;;;;;;;;5.00;5.00;;;;;26.29;39.42;101032.75;5100016;27;45361;-73
2022/08/13 08:31:19;;;;;;;;;5.00;5.00;;;;;26.42;39.49;101046.56;5100412;27;45670;-72
2022/08/13 08:33:47;;;;;;;;;5.33;5.33;;;;;26.46;39.25;101045.47;5093708;27;45638;-72
2022/08/13 08:36:12;;;;;;;;;6.00;6.00;;;;;26.43;39.26;101040.22;5097614;27;45485;-71
2022/08/13 08:44:23;;;;;;;;;5.00;5.00;;;;;26.64;38.25;101053.50;5080026;27;45342;-72
2022/08/13 08:46:51;;;;;;;;;5.00;5.00;;;;;26.70;38.17;101049.59;5089389;27;45412;-72
2022/08/13 08:49:17;;;;;;;;;5.00;4.33;;;;;26.72;38.29;101044.09;5075793;27;45479;-72
2022/08/13 08:51:42;;;;;;;;;5.67;5.67;;;;;26.82;38.19;101042.66;5077337;27;45173;-71
2022/08/13 08:54:08;;;;;;;;;6.67;6.67;;;;;26.86;37.96;101047.84;5092525;27;71273;-72
2022/08/13 08:56:34;;;;;;;;;5.33;5.33;;;;;26.93;38.17;101050.22;5076402;27;67673;-72
2022/08/13 08:59:01;;;;;;;;;6.67;5.67;;;;;26.95;38.00;101046.44;5094354;27;45539;-72
2022/08/13 09:01:26;;;;;;;;;6.00;6.00;;;;;27.01;37.74;101048.84;5098289;27;45598;-73
2022/08/13 09:03:56;;;;;;;;;5.33;5.33;;;;;27.01;37.36;101042.56;5083478;27;45699;-72
2022/08/13 09:06:23;;;;;;;;;6.00;6.00;;;;;27.08;37.81;101046.72;5096625;27;45466;-73
2022/08/13 09:08:52;;;;;;;;;4.00;4.00;;;;;27.13;37.79;101050.91;5097040;27;45470;-73
2022/08/13 09:11:19;;;;;;;;;5.00;5.00;;;;;27.14;37.14;101039.13;5080977;27;45620;-72
2022/08/13 09:13:49;;;;;;;;;5.00;5.00;;;;;27.19;37.50;101032.56;5092469;27;47339;-72
2022/08/13 09:16:14;;;;;;;;;5.00;5.00;;;;;27.30;37.67;101044.56;5077726;27;45453;-72
2022/08/13 09:18:40;;;;;;;;;6.00;4.67;;;;;27.30;37.25;101036.44;5076033;27;59575;-73
2022/08/13 09:21:06;;;;;;;;;8.33;6.00;;;;;27.38;37.25;101038.72;5097230;27;60207;-71
2022/08/13 09:23:33;;;;;;;;;8.33;4.33;;;;;27.39;36.93;101035.06;5077939;27;47347;-72
2022/08/13 09:25:58;;;;;;;;;5.33;4.33;;;;;27.49;36.96;101036.28;5098398;27;45420;-72
2022/08/13 09:28:24;;;;;;;;;4.67;4.67;;;;;27.54;36.81;101038.72;5076817;27;46140;-72
2022/08/13 09:30:51;;;;;;;;;4.00;4.00;;;;;27.59;36.13;101034.81;5097125;27;45516;-72
2022/08/13 09:33:19;;;;;;;;;4.00;4.00;;;;;27.67;35.84;101037.06;5084699;27;46720;-71
2022/08/13 09:35:44;;;;;;;;;5.00;5.00;;;;;27.76;35.60;101044.72;5076496;27;45557;-73
2022/08/13 09:38:10;;;;;;;;;6.00;4.00;;;;;27.83;35.85;101043.41;5077910;27;45478;-72
2022/08/13 09:40:40;;;;;;;;;5.00;5.00;;;;;27.87;36.55;101044.13;5078708;27;56250;-72
2022/08/13 09:43:15;;;;;;;;;6.00;6.00;;;;;27.94;36.29;101042.78;5107554;27;46491;-73
2022/08/13 09:45:41;;;;;;;;;5.00;5.00;;;;;27.93;36.16;101030.19;5112622;27;45387;-72
2022/08/13 09:48:08;;;;;;;;;4.00;4.00;;;;;28.01;35.73;101035.16;5103625;27;45358;-72
2022/08/13 09:50:34;;;;;;;;;5.00;5.00;;;;;28.08;35.78;101036.56;5077950;27;45518;-72
2022/08/13 09:53:00;;;;;;;;;3.00;3.00;;;;;28.15;35.53;101027.06;5077698;27;47396;-72
2022/08/13 09:55:25;;;;;;;;;4.00;4.00;;;;;28.26;35.38;101037.31;5086080;27;45333;-73
2022/08/13 09:57:54;;;;;;;;;4.00;4.00;;;;;28.32;35.18;101040.50;5076833;27;45490;-72
2022/08/13 10:00:22;;;;;;;;;4.67;4.67;;;;;28.38;34.46;101031.16;5075773;27;45498;-73
2022/08/13 10:02:56;;;;;;;;;6.00;4.00;;;;;28.42;34.96;101011.00;5076103;27;46507;-72
2022/08/13 10:05:21;;;;;;;;;3.67;3.67;;;;;28.53;35.06;101021.22;5086515;27;45444;-72
2022/08/13 10:07:47;;;;;;;;;4.67;4.33;;;;;28.54;34.71;101012.97;5093389;27;45283;-72
2022/08/13 10:10:13;;;;;;;;;6.00;5.00;;;;;28.63;34.03;101015.13;5076542;27;59606;-72
2022/08/13 10:12:40;;;;;;;;;6.00;4.00;;;;;28.73;33.93;101017.28;5087505;27;46247;-74
2022/08/13 10:15:08;;;;;;;;;4.00;4.00;;;;;28.80;33.45;101018.63;5095152;27;45520;-73
2022/08/13 10:17:52;;;;;;;;;4.00;3.00;;;;;28.85;33.08;101011.94;5098743;27;45442;-72
2022/08/13 10:20:30;;;;;;;;;4.00;4.00;;;;;28.92;33.19;101004.25;5098815;27;45501;-72
2022/08/13 10:22:57;;;;;;;;;3.33;3.33;;;;;29.04;33.02;101017.16;5079636;27;46662;-73
2022/08/13 10:25:23;;;;;;;;;6.00;4.00;;;;;29.10;32.73;101011.31;5077284;27;45209;-72
2022/08/13 10:27:49;;;;;;;;;3.00;3.00;;;;;29.10;32.59;100995.00;5076870;27;45432;-73
2022/08/13 10:30:20;;;;;;;;;4.33;4.33;;;;;29.17;32.89;101012.66;5086445;27;45556;-73
2022/08/13 10:32:46;;;;;;;;;3.67;3.67;;;;;29.23;32.81;101006.81;5076914;27;47419;-74
2022/08/13 10:35:12;;;;;;;;;5.33;5.33;;;;;29.28;32.53;100992.06;5089691;27;45412;-74
2022/08/13 10:37:53;;;;;;;;;6.33;3.00;;;;;29.39;32.46;101003.97;5080883;27;45501;-72
2022/08/13 10:40:20;;;;;;;;;3.67;3.67;;;;;29.49;32.57;100998.81;5070489;27;45407;-72
2022/08/13 10:42:45;;;;;;;;;3.33;3.33;;;;;29.57;31.40;100999.25;5076646;27;45748;-73
2022/08/13 10:45:13;;;;;;;;;4.00;3.00;;;;;29.63;30.72;100989.78;5084392;27;45272;-72
2022/08/13 10:47:49;;;;;;;;;4.67;4.33;;;;;29.68;31.73;100991.22;5096841;27;45333;-72
2022/08/13 10:50:16;;;;;;;;;3.00;3.00;;;;;29.74;31.32;100990.81;5096655;27;45281;-73
2022/08/13 10:52:42;;;;;;;;;3.00;3.00;;;;;29.86;31.05;100990.97;5083239;27;46782;-72
2022/08/13 10:55:12;;;;;;;;;4.00;4.00;;;;;29.91;30.98;100986.97;5096421;27;45606;-72
2022/08/13 10:57:43;;;;;;;;;4.00;4.00;;;;;30.02;30.90;100988.97;5087932;27;45496;-72
2022/08/13 11:00:11;;;;;;;;;3.00;3.00;;;;;30.08;31.37;100985.81;5085415;27;45329;-72
2022/08/13 11:02:37;;;;;;;;;4.00;2.00;;;;;30.18;31.13;100978.78;5096789;27;46561;-73
2022/08/13 11:05:12;;;;;;;;;3.67;3.00;;;;;30.24;30.57;100970.19;5089154;27;45516;-73
2022/08/13 11:07:38;;;;;;;;;2.33;2.33;;;;;30.36;30.15;100990.28;5069527;27;45202;-74
2022/08/13 11:10:08;;;;;;;;;3.67;3.67;;;;;30.43;30.23;100988.88;5071905;27;45570;-73
2022/08/13 11:12:34;;;;;;;;;3.33;3.33;;;;;30.46;29.86;100982.31;5075676;27;45846;-72
2022/08/13 11:15:00;;;;;;;;;2.00;2.00;;;;;30.57;29.48;100984.28;5083461;27;45458;-72
2022/08/13 11:17:26;;;;;;;;;5.00;4.00;;;;;30.60;29.44;100970.47;5081450;27;45357;-72
2022/08/13 11:19:52;;;;;;;;;4.33;3.00;;;;;30.71;29.51;100985.09;5084587;27;45347;-73
2022/08/13 11:22:27;;;;;;;;;5.33;4.00;;;;;30.77;28.84;100981.06;5079585;27;45785;-73
2022/08/13 11:24:52;;;;;;;;;4.00;2.67;;;;;30.89;29.36;100982.03;5088459;27;45328;-72
2022/08/13 11:27:17;;;;;;;;;2.00;2.00;;;;;30.95;27.42;100982.50;5080360;27;45408;-72
2022/08/13 11:29:43;;;;;;;;;2.67;2.67;;;;;31.06;28.43;100973.53;5080971;27;45644;-72
2022/08/13 11:32:09;;;;;;;;;4.67;1.33;;;;;31.16;27.80;100968.25;5082781;27;47509;-72
2022/08/13 11:34:34;;;;;;;;;4.00;2.33;;;;;31.23;27.51;100962.25;5076954;27;45445;-72
2022/08/13 11:37:00;;;;;;;;;2.00;2.00;;;;;31.31;26.72;100967.16;5088286;27;45320;-73
2022/08/13 11:39:25;;;;;;;;;2.33;2.33;;;;;31.39;26.96;100963.88;5091668;27;45589;-72
2022/08/13 11:41:50;;;;;;;;;2.00;2.00;;;;;31.50;27.17;100967.56;5088169;27;69004;-72
2022/08/13 11:44:16;;;;;;;;;1.33;1.33;;;;;31.61;27.17;100960.44;5084964;27;45434;-74
2022/08/13 11:46:42;;;;;;;;;2.00;2.00;;;;;31.71;27.10;100959.63;5080440;27;45257;-72
2022/08/13 11:49:07;;;;;;;;;3.00;3.00;;;;;31.78;26.65;100955.41;5091589;27;45233;-73
2022/08/13 11:51:32;;;;;;;;;3.33;2.00;;;;;31.91;26.77;100954.53;5075874;27;67190;-72
2022/08/13 11:53:58;;;;;;;;;2.00;2.00;;;;;32.02;26.49;100946.38;5076277;27;60506;-73
2022/08/13 11:56:23;;;;;;;;;1.00;1.00;;;;;32.14;26.21;100945.44;5075986;27;64729;-72
2022/08/13 11:58:51;;;;;;;;;2.00;2.00;;;;;32.27;26.20;100948.06;5080080;27;52560;-74
2022/08/13 12:01:18;;;;;;;;;2.00;2.00;;;;;32.40;25.76;100940.69;5075897;27;47413;-75
2022/08/13 12:03:44;;;;;;;;;1.67;1.67;;;;;32.50;26.24;100933.50;5076209;27;45344;-73
2022/08/13 12:06:10;;;;;;;;;1.00;1.00;;;;;32.59;26.75;100931.88;5081342;27;45224;-72
2022/08/13 12:08:36;;;;;;;;;1.67;1.67;;;;;32.72;25.82;100938.13;5085593;27;45336;-72
2022/08/13 12:11:02;;;;;;;;;2.00;2.00;;;;;32.85;25.96;100929.78;5089726;27;46703;-72
2022/08/13 12:13:27;;;;;;;;;2.00;2.00;;;;;32.93;25.55;100916.41;5087213;27;46535;-72